sensor_id;sensor_type;location;lat;lon;timestamp;P1;durP1;ratioP1;P2;durP2;ratioP2
14704;SDS011;7442;50.840;3.396;2023-07-30T08:09:39;8.58;;;2.47;;
14704;SDS011;7442;50.840;3.396;2023-07-30T08:12:25;6.62;;;2.50;;
14704;SDS011;7442;50.840;3.396;2023-07-30T08:15:12;7.90;;;2.37;;
14704;SDS011;7442;50.840;3.396;2023-07-30T08:17:58;6.22;;;2.40;;
14704;SDS011;7442;50.840;3.396;2023-07-30T08:20:44;7.78;;;2.33;;
14704;SDS011;7442;50.840;3.396;2023-07-30T08:23:31;5.12;;;2.33;;
14704;SDS011;7442;50.840;3.396;2023-07-30T08:26:17;5.92;;;2.55;;
14704;SDS011;7442;50.840;3.396;2023-07-30T08:29:03;11.75;;;2.95;;
14704;SDS011;7442;50.840;3.396;2023-07-30T08:31:52;6.87;;;2.37;;
14704;SDS011;7442;50.840;3.396;2023-07-30T08:34:38;5.35;;;2.10;;
14704;SDS011;7442;50.840;3.396;2023-07-30T08:37:25;6.53;;;2.58;;
14704;SDS011;7442;50.840;3.396;2023-07-30T08:40:11;5.72;;;2.75;;
14704;SDS011;7442;50.840;3.396;2023-07-30T08:42:58;9.88;;;2.70;;
14704;SDS011;7442;50.840;3.396;2023-07-30T08:45:44;10.53;;;3.20;;
14704;SDS011;7442;50.840;3.396;2023-07-30T08:48:31;8.93;;;3.20;;
14704;SDS011;7442;50.840;3.396;2023-07-30T08:51:17;7.50;;;2.77;;
14704;SDS011;7442;50.840;3.396;2023-07-30T08:54:04;8.08;;;2.50;;
14704;SDS011;7442;50.840;3.396;2023-07-30T08:56:51;8.48;;;3.00;;
14704;SDS011;7442;50.840;3.396;2023-07-30T08:59:39;8.53;;;2.77;;
14704;SDS011;7442;50.840;3.396;2023-07-30T09:02:30;12.07;;;3.10;;
14704;SDS011;7442;50.840;3.396;2023-07-30T09:05:21;11.00;;;2.87;;
14704;SDS011;7442;50.840;3.396;2023-07-30T09:08:10;7.45;;;2.72;;
14704;SDS011;7442;50.840;3.396;2023-07-30T09:11:05;9.73;;;2.70;;
14704;SDS011;7442;50.840;3.396;2023-07-30T09:13:53;8.17;;;2.87;;
14704;SDS011;7442;50.840;3.396;2023-07-30T09:16:40;7.97;;;2.90;;
14704;SDS011;7442;50.840;3.396;2023-07-30T09:19:26;8.45;;;2.77;;
14704;SDS011;7442;50.840;3.396;2023-07-30T09:22:13;10.53;;;2.95;;
14704;SDS011;7442;50.840;3.396;2023-07-30T09:25:02;10.58;;;2.98;;
14704;SDS011;7442;50.840;3.396;2023-07-30T09:27:50;11.85;;;3.35;;
14704;SDS011;7442;50.840;3.396;2023-07-30T09:30:37;6.03;;;2.40;;
14704;SDS011;7442;50.840;3.396;2023-07-30T09:33:23;9.53;;;2.90;;
14704;SDS011;7442;50.840;3.396;2023-07-30T09:36:10;10.82;;;2.77;;
14704;SDS011;7442;50.840;3.396;2023-07-30T09:38:56;16.65;;;2.98;;
14704;SDS011;7442;50.840;3.396;2023-07-30T09:41:42;8.00;;;2.55;;
14704;SDS011;7442;50.840;3.396;2023-07-30T09:44:29;9.85;;;2.77;;
14704;SDS011;7442;50.840;3.396;2023-07-30T09:47:21;9.73;;;2.65;;
14704;SDS011;7442;50.840;3.396;2023-07-30T09:50:14;8.08;;;2.58;;
14704;SDS011;7442;50.840;3.396;2023-07-30T09:53:00;9.13;;;2.60;;
14704;SDS011;7442;50.840;3.396;2023-07-30T09:55:48;8.05;;;2.40;;
14704;SDS011;7442;50.840;3.396;2023-07-30T09:58:34;11.57;;;2.58;;
14704;SDS011;7442;50.840;3.396;2023-07-30T10:01:22;7.67;;;2.70;;
14704;SDS011;7442;50.840;3.396;2023-07-30T10:04:11;7.40;;;2.35;;
14704;SDS011;7442;50.840;3.396;2023-07-30T10:07:02;9.50;;;2.30;;
14704;SDS011;7442;50.840;3.396;2023-07-30T10:09:52;6.45;;;2.08;;
14704;SDS011;7442;50.840;3.396;2023-07-30T10:12:41;7.62;;;2.35;;
14704;SDS011;7442;50.840;3.396;2023-07-30T10:15:29;10.72;;;2.58;;
14704;SDS011;7442;50.840;3.396;2023-07-30T10:18:17;7.00;;;2.05;;
14704;SDS011;7442;50.840;3.396;2023-07-30T10:21:06;8.25;;;2.75;;
14704;SDS011;7442;50.840;3.396;2023-07-30T10:24:01;15.45;;;3.65;;
14704;SDS011;7442;50.840;3.396;2023-07-30T10:26:49;14.65;;;3.50;;
14704;SDS011;7442;50.840;3.396;2023-07-30T10:29:36;15.60;;;4.78;;
14704;SDS011;7442;50.840;3.396;2023-07-30T10:32:30;20.68;;;5.10;;
14704;SDS011;7442;50.840;3.396;2023-07-30T10:35:34;24.98;;;6.12;;
14704;SDS011;7442;50.840;3.396;2023-07-30T10:38:27;28.62;;;7.30;;
14704;SDS011;7442;50.840;3.396;2023-07-30T10:41:14;25.55;;;6.37;;
14704;SDS011;7442;50.840;3.396;2023-07-30T10:44:01;31.80;;;6.60;;
14704;SDS011;7442;50.840;3.396;2023-07-30T10:46:48;23.95;;;5.33;;
14704;SDS011;7442;50.840;3.396;2023-07-30T10:49:38;18.48;;;4.22;;
14704;SDS011;7442;50.840;3.396;2023-07-30T10:52:35;20.77;;;5.25;;
14704;SDS011;7442;50.840;3.396;2023-07-30T10:55:21;24.63;;;5.50;;
14704;SDS011;7442;50.840;3.396;2023-07-30T10:58:10;17.07;;;5.03;;
14704;SDS011;7442;50.840;3.396;2023-07-30T11:00:56;15.53;;;4.20;;
14704;SDS011;7442;50.840;3.396;2023-07-30T11:03:43;13.20;;;4.03;;
14704;SDS011;7442;50.840;3.396;2023-07-30T11:06:31;14.98;;;4.40;;
14704;SDS011;7442;50.840;3.396;2023-07-30T11:09:18;12.63;;;3.70;;
14704;SDS011;7442;50.840;3.396;2023-07-30T11:12:08;10.58;;;3.45;;
14704;SDS011;7442;50.840;3.396;2023-07-30T11:15:01;12.33;;;3.47;;
14704;SDS011;7442;50.840;3.396;2023-07-30T11:17:48;11.68;;;3.15;;
14704;SDS011;7442;50.840;3.396;2023-07-30T11:20:36;8.38;;;3.02;;
14704;SDS011;7442;50.840;3.396;2023-07-30T11:23:23;6.97;;;2.62;;
14704;SDS011;7442;50.840;3.396;2023-07-30T11:26:19;9.83;;;3.50;;
14704;SDS011;7442;50.840;3.396;2023-07-30T11:29:19;9.95;;;2.92;;
14704;SDS011;7442;50.840;3.396;2023-07-30T11:32:05;8.38;;;2.95;;
14704;SDS011;7442;50.840;3.396;2023-07-30T11:34:52;10.68;;;2.87;;
14704;SDS011;7442;50.840;3.396;2023-07-30T11:37:39;11.08;;;2.65;;
14704;SDS011;7442;50.840;3.396;2023-07-30T11:40:27;7.92;;;2.40;;
14704;SDS011;7442;50.840;3.396;2023-07-30T11:43:14;9.95;;;2.77;;
14704;SDS011;7442;50.840;3.396;2023-07-30T11:46:07;8.20;;;2.47;;
14704;SDS011;7442;50.840;3.396;2023-07-30T11:49:10;8.30;;;2.52;;
14704;SDS011;7442;50.840;3.396;2023-07-30T11:52:04;6.80;;;2.27;;
14704;SDS011;7442;50.840;3.396;2023-07-30T11:55:02;5.12;;;2.10;;
14704;SDS011;7442;50.840;3.396;2023-07-30T11:57:51;6.72;;;2.33;;
14704;SDS011;7442;50.840;3.396;2023-07-30T12:00:38;11.75;;;2.45;;
14704;SDS011;7442;50.840;3.396;2023-07-30T12:03:25;7.92;;;2.40;;
14704;SDS011;7442;50.840;3.396;2023-07-30T12:06:11;7.33;;;1.87;;
14704;SDS011;7442;50.840;3.396;2023-07-30T12:08:58;6.12;;;2.22;;
14704;SDS011;7442;50.840;3.396;2023-07-30T12:11:53;4.60;;;2.20;;
14704;SDS011;7442;50.840;3.396;2023-07-30T12:17:36;6.10;;;2.60;;
14704;SDS011;7442;50.840;3.396;2023-07-30T12:20:22;7.50;;;2.67;;
14704;SDS011;7442;50.840;3.396;2023-07-30T12:23:11;5.08;;;2.08;;
14704;SDS011;7442;50.840;3.396;2023-07-30T12:25:58;7.22;;;2.22;;
14704;SDS011;7442;50.840;3.396;2023-07-30T12:28:45;5.50;;;2.25;;
14704;SDS011;7442;50.840;3.396;2023-07-30T12:31:31;10.10;;;2.40;;
14704;SDS011;7442;50.840;3.396;2023-07-30T12:34:18;7.85;;;2.42;;
14704;SDS011;7442;50.840;3.396;2023-07-30T12:37:05;6.67;;;2.40;;
14704;SDS011;7442;50.840;3.396;2023-07-30T12:42:20;5.53;;;2.10;;
14704;SDS011;7442;50.840;3.396;2023-07-30T12:45:06;5.25;;;1.80;;
14704;SDS011;7442;50.840;3.396;2023-07-30T12:47:53;7.03;;;2.47;;
14704;SDS011;7442;50.840;3.396;2023-07-30T12:50:39;5.35;;;2.20;;
14704;SDS011;7442;50.840;3.396;2023-07-30T12:53:25;5.58;;;2.30;;
14704;SDS011;7442;50.840;3.396;2023-07-30T12:56:11;6.75;;;2.52;;
14704;SDS011;7442;50.840;3.396;2023-07-30T12:58:59;5.33;;;2.12;;
14704;SDS011;7442;50.840;3.396;2023-07-30T13:01:46;5.50;;;2.27;;
14704;SDS011;7442;50.840;3.396;2023-07-30T13:04:32;6.83;;;2.67;;
14704;SDS011;7442;50.840;3.396;2023-07-30T13:07:18;6.00;;;2.80;;
14704;SDS011;7442;50.840;3.396;2023-07-30T13:10:08;6.33;;;2.35;;
14704;SDS011;7442;50.840;3.396;2023-07-30T13:12:54;6.35;;;2.70;;
14704;SDS011;7442;50.840;3.396;2023-07-30T13:15:40;7.47;;;2.60;;
14704;SDS011;7442;50.840;3.396;2023-07-30T13:18:27;6.33;;;2.55;;
14704;SDS011;7442;50.840;3.396;2023-07-30T13:21:14;7.05;;;2.72;;
14704;SDS011;7442;50.840;3.396;2023-07-30T13:24:00;7.08;;;2.80;;
14704;SDS011;7442;50.840;3.396;2023-07-30T13:26:46;5.25;;;2.33;;
14704;SDS011;7442;50.840;3.396;2023-07-30T13:29:33;8.50;;;2.90;;
14704;SDS011;7442;50.840;3.396;2023-07-30T13:32:19;7.30;;;2.65;;
14704;SDS011;7442;50.840;3.396;2023-07-30T13:35:06;7.42;;;2.67;;
14704;SDS011;7442;50.840;3.396;2023-07-30T13:37:52;11.10;;;3.08;;
14704;SDS011;7442;50.840;3.396;2023-07-30T13:40:38;6.97;;;2.65;;
14704;SDS011;7442;50.840;3.396;2023-07-30T13:43:25;9.13;;;2.92;;
14704;SDS011;7442;50.840;3.396;2023-07-30T13:46:11;8.33;;;3.02;;
14704;SDS011;7442;50.840;3.396;2023-07-30T13:48:57;10.25;;;3.00;;
14704;SDS011;7442;50.840;3.396;2023-07-30T13:51:44;9.05;;;3.40;;
14704;SDS011;7442;50.840;3.396;2023-07-30T13:54:30;9.85;;;3.05;;
14704;SDS011;7442;50.840;3.396;2023-07-30T13:57:22;5.92;;;2.70;;
14704;SDS011;7442;50.840;3.396;2023-07-30T14:00:10;7.17;;;2.77;;
14704;SDS011;7442;50.840;3.396;2023-07-30T14:02:57;9.38;;;3.08;;
14704;SDS011;7442;50.840;3.396;2023-07-30T14:05:44;9.88;;;2.95;;
14704;SDS011;7442;50.840;3.396;2023-07-30T14:08:30;7.92;;;2.87;;
14704;SDS011;7442;50.840;3.396;2023-07-30T14:11:16;7.15;;;3.17;;
14704;SDS011;7442;50.840;3.396;2023-07-30T14:14:03;8.33;;;3.55;;
14704;SDS011;7442;50.840;3.396;2023-07-30T14:16:50;10.75;;;3.33;;
14704;SDS011;7442;50.840;3.396;2023-07-30T14:19:37;8.98;;;2.87;;
14704;SDS011;7442;50.840;3.396;2023-07-30T14:22:23;7.53;;;3.27;;
14704;SDS011;7442;50.840;3.396;2023-07-30T14:25:09;6.92;;;2.98;;
14704;SDS011;7442;50.840;3.396;2023-07-30T14:27:56;9.85;;;3.35;;
14704;SDS011;7442;50.840;3.396;2023-07-30T14:30:42;10.65;;;3.50;;
14704;SDS011;7442;50.840;3.396;2023-07-30T14:33:29;9.18;;;3.70;;
14704;SDS011;7442;50.840;3.396;2023-07-30T14:36:15;6.65;;;3.40;;
14704;SDS011;7442;50.840;3.396;2023-07-30T14:39:01;8.28;;;3.30;;
14704;SDS011;7442;50.840;3.396;2023-07-30T14:41:47;6.58;;;3.15;;
14704;SDS011;7442;50.840;3.396;2023-07-30T14:44:34;7.37;;;3.15;;
14704;SDS011;7442;50.840;3.396;2023-07-30T14:47:22;6.80;;;3.37;;
14704;SDS011;7442;50.840;3.396;2023-07-30T14:50:09;10.03;;;3.37;;
14704;SDS011;7442;50.840;3.396;2023-07-30T14:52:55;6.42;;;3.62;;
14704;SDS011;7442;50.840;3.396;2023-07-30T14:55:41;7.25;;;3.50;;
14704;SDS011;7442;50.840;3.396;2023-07-30T14:58:28;7.97;;;3.47;;
14704;SDS011;7442;50.840;3.396;2023-07-30T15:01:14;6.60;;;3.17;;
14704;SDS011;7442;50.840;3.396;2023-07-30T15:04:00;7.60;;;3.08;;
14704;SDS011;7442;50.840;3.396;2023-07-30T15:06:46;6.92;;;3.05;;
14704;SDS011;7442;50.840;3.396;2023-07-30T15:09:33;9.30;;;3.30;;
14704;SDS011;7442;50.840;3.396;2023-07-30T15:12:21;6.15;;;3.15;;
14704;SDS011;7442;50.840;3.396;2023-07-30T15:15:07;6.12;;;3.10;;
14704;SDS011;7442;50.840;3.396;2023-07-30T15:17:54;8.75;;;3.30;;
14704;SDS011;7442;50.840;3.396;2023-07-30T15:20:40;9.38;;;3.20;;
14704;SDS011;7442;50.840;3.396;2023-07-30T15:23:27;5.83;;;2.92;;
14704;SDS011;7442;50.840;3.396;2023-07-30T15:26:13;7.30;;;3.58;;
14704;SDS011;7442;50.840;3.396;2023-07-30T15:29:00;8.80;;;3.17;;
14704;SDS011;7442;50.840;3.396;2023-07-30T15:31:48;5.67;;;2.67;;
14704;SDS011;7442;50.840;3.396;2023-07-30T15:34:35;6.55;;;3.02;;
14704;SDS011;7442;50.840;3.396;2023-07-30T15:37:21;7.00;;;3.00;;
14704;SDS011;7442;50.840;3.396;2023-07-30T15:40:08;6.83;;;3.33;;
14704;SDS011;7442;50.840;3.396;2023-07-30T15:42:54;6.15;;;2.90;;
14704;SDS011;7442;50.840;3.396;2023-07-30T15:45:40;4.60;;;2.95;;
14704;SDS011;7442;50.840;3.396;2023-07-30T15:48:30;6.67;;;3.12;;
14704;SDS011;7442;50.840;3.396;2023-07-30T15:51:17;5.62;;;2.92;;
14704;SDS011;7442;50.840;3.396;2023-07-30T15:54:03;6.10;;;2.75;;
14704;SDS011;7442;50.840;3.396;2023-07-30T15:56:50;6.70;;;2.92;;
14704;SDS011;7442;50.840;3.396;2023-07-30T15:59:36;6.25;;;3.35;;
14704;SDS011;7442;50.840;3.396;2023-07-30T16:02:23;4.37;;;2.58;;
14704;SDS011;7442;50.840;3.396;2023-07-30T16:05:09;7.67;;;3.00;;
14704;SDS011;7442;50.840;3.396;2023-07-30T16:07:56;5.72;;;2.80;;
14704;SDS011;7442;50.840;3.396;2023-07-30T16:10:43;5.00;;;3.08;;
14704;SDS011;7442;50.840;3.396;2023-07-30T16:13:29;5.12;;;2.90;;
14704;SDS011;7442;50.840;3.396;2023-07-30T16:16:16;5.80;;;2.67;;
14704;SDS011;7442;50.840;3.396;2023-07-30T16:19:03;5.42;;;2.98;;
14704;SDS011;7442;50.840;3.396;2023-07-30T16:21:51;6.47;;;3.17;;
14704;SDS011;7442;50.840;3.396;2023-07-30T16:24:39;5.20;;;2.70;;
14704;SDS011;7442;50.840;3.396;2023-07-30T16:27:25;4.53;;;2.83;;
14704;SDS011;7442;50.840;3.396;2023-07-30T16:30:11;5.78;;;3.30;;
14704;SDS011;7442;50.840;3.396;2023-07-30T16:32:58;7.40;;;3.10;;
14704;SDS011;7442;50.840;3.396;2023-07-30T16:35:46;6.25;;;2.90;;
14704;SDS011;7442;50.840;3.396;2023-07-30T16:38:32;5.08;;;3.05;;
14704;SDS011;7442;50.840;3.396;2023-07-30T16:41:20;4.30;;;2.58;;
14704;SDS011;7442;50.840;3.396;2023-07-30T16:44:12;8.75;;;3.10;;
14704;SDS011;7442;50.840;3.396;2023-07-30T16:46:59;5.17;;;2.67;;
14704;SDS011;7442;50.840;3.396;2023-07-30T16:49:47;6.50;;;3.05;;
14704;SDS011;7442;50.840;3.396;2023-07-30T16:52:34;5.67;;;2.52;;
14704;SDS011;7442;50.840;3.396;2023-07-30T16:55:20;5.75;;;3.00;;
14704;SDS011;7442;50.840;3.396;2023-07-30T16:58:14;6.87;;;3.05;;
14704;SDS011;7442;50.840;3.396;2023-07-30T17:01:07;7.47;;;3.45;;
14704;SDS011;7442;50.840;3.396;2023-07-30T17:03:55;6.83;;;3.35;;
14704;SDS011;7442;50.840;3.396;2023-07-30T17:06:41;6.85;;;3.10;;
14704;SDS011;7442;50.840;3.396;2023-07-30T17:09:28;7.80;;;3.37;;
14704;SDS011;7442;50.840;3.396;2023-07-30T17:12:14;9.30;;;3.27;;
14704;SDS011;7442;50.840;3.396;2023-07-30T17:15:04;6.10;;;2.90;;
14704;SDS011;7442;50.840;3.396;2023-07-30T17:17:52;8.23;;;3.17;;
14704;SDS011;7442;50.840;3.396;2023-07-30T17:20:40;9.98;;;3.42;;
14704;SDS011;7442;50.840;3.396;2023-07-30T17:23:26;7.05;;;2.92;;
14704;SDS011;7442;50.840;3.396;2023-07-30T17:26:13;5.55;;;3.05;;
14704;SDS011;7442;50.840;3.396;2023-07-30T17:29:00;4.47;;;3.10;;
14704;SDS011;7442;50.840;3.396;2023-07-30T17:31:48;8.50;;;3.60;;
14704;SDS011;7442;50.840;3.396;2023-07-30T17:34:34;6.83;;;3.05;;
14704;SDS011;7442;50.840;3.396;2023-07-30T17:37:20;9.33;;;3.50;;
14704;SDS011;7442;50.840;3.396;2023-07-30T17:40:08;12.18;;;3.87;;
14704;SDS011;7442;50.840;3.396;2023-07-30T17:42:55;9.38;;;3.98;;
14704;SDS011;7442;50.840;3.396;2023-07-30T17:45:41;6.10;;;3.70;;
14704;SDS011;7442;50.840;3.396;2023-07-30T17:48:28;7.22;;;3.65;;
14704;SDS011;7442;50.840;3.396;2023-07-30T17:51:15;7.60;;;3.83;;
14704;SDS011;7442;50.840;3.396;2023-07-30T17:54:02;6.37;;;3.55;;
14704;SDS011;7442;50.840;3.396;2023-07-30T17:56:49;9.98;;;4.22;;
14704;SDS011;7442;50.840;3.396;2023-07-30T17:59:35;9.68;;;4.00;;
14704;SDS011;7442;50.840;3.396;2023-07-30T18:02:21;8.83;;;3.75;;
14704;SDS011;7442;50.840;3.396;2023-07-30T18:05:08;13.55;;;3.80;;
14704;SDS011;7442;50.840;3.396;2023-07-30T18:07:55;7.62;;;3.55;;
14704;SDS011;7442;50.840;3.396;2023-07-30T18:10:43;7.45;;;4.00;;
14704;SDS011;7442;50.840;3.396;2023-07-30T18:13:30;7.78;;;3.70;;
14704;SDS011;7442;50.840;3.396;2023-07-30T18:16:16;9.03;;;3.62;;
14704;SDS011;7442;50.840;3.396;2023-07-30T18:19:03;9.70;;;4.30;;
14704;SDS011;7442;50.840;3.396;2023-07-30T18:21:49;7.50;;;3.95;;
14704;SDS011;7442;50.840;3.396;2023-07-30T18:24:36;11.75;;;4.78;;
14704;SDS011;7442;50.840;3.396;2023-07-30T18:27:23;9.23;;;4.22;;
14704;SDS011;7442;50.840;3.396;2023-07-30T18:30:09;9.05;;;4.33;;
14704;SDS011;7442;50.840;3.396;2023-07-30T18:33:02;14.65;;;4.62;;
14704;SDS011;7442;50.840;3.396;2023-07-30T18:35:55;10.75;;;4.40;;
14704;SDS011;7442;50.840;3.396;2023-07-30T18:38:43;8.98;;;4.20;;
14704;SDS011;7442;50.840;3.396;2023-07-30T18:41:29;11.10;;;4.70;;
14704;SDS011;7442;50.840;3.396;2023-07-30T18:44:15;12.00;;;4.08;;
14704;SDS011;7442;50.840;3.396;2023-07-30T18:47:02;9.38;;;5.03;;
14704;SDS011;7442;50.840;3.396;2023-07-30T18:49:49;11.48;;;4.85;;
14704;SDS011;7442;50.840;3.396;2023-07-30T18:52:36;13.83;;;5.28;;
14704;SDS011;7442;50.840;3.396;2023-07-30T18:55:24;7.67;;;4.55;;
14704;SDS011;7442;50.840;3.396;2023-07-30T18:58:10;10.75;;;4.97;;
14704;SDS011;7442;50.840;3.396;2023-07-30T19:00:56;10.80;;;5.20;;
14704;SDS011;7442;50.840;3.396;2023-07-30T19:03:42;10.70;;;5.05;;
14704;SDS011;7442;50.840;3.396;2023-07-30T19:06:29;10.48;;;4.85;;
14704;SDS011;7442;50.840;3.396;2023-07-30T19:09:15;10.20;;;4.53;;
14704;SDS011;7442;50.840;3.396;2023-07-30T19:12:01;10.43;;;5.00;;
14704;SDS011;7442;50.840;3.396;2023-07-30T19:14:48;12.88;;;5.45;;
14704;SDS011;7442;50.840;3.396;2023-07-30T19:17:36;11.48;;;5.35;;
14704;SDS011;7442;50.840;3.396;2023-07-30T19:20:22;10.98;;;5.47;;
14704;SDS011;7442;50.840;3.396;2023-07-30T19:23:09;9.93;;;5.03;;
14704;SDS011;7442;50.840;3.396;2023-07-30T19:25:55;11.18;;;5.40;;
14704;SDS011;7442;50.840;3.396;2023-07-30T19:28:42;9.93;;;4.78;;
14704;SDS011;7442;50.840;3.396;2023-07-30T19:31:28;14.58;;;5.25;;
14704;SDS011;7442;50.840;3.396;2023-07-30T19:34:16;10.70;;;5.10;;
14704;SDS011;7442;50.840;3.396;2023-07-30T19:37:02;12.60;;;5.62;;
14704;SDS011;7442;50.840;3.396;2023-07-30T19:39:49;11.03;;;5.45;;
14704;SDS011;7442;50.840;3.396;2023-07-30T19:42:35;14.03;;;5.90;;
14704;SDS011;7442;50.840;3.396;2023-07-30T19:45:22;9.88;;;5.05;;
14704;SDS011;7442;50.840;3.396;2023-07-30T19:48:08;11.90;;;5.50;;
14704;SDS011;7442;50.840;3.396;2023-07-30T19:50:55;15.00;;;5.50;;
14704;SDS011;7442;50.840;3.396;2023-07-30T19:53:41;11.73;;;5.22;;
14704;SDS011;7442;50.840;3.396;2023-07-30T19:56:28;10.98;;;4.90;;
14704;SDS011;7442;50.840;3.396;2023-07-30T19:59:14;10.93;;;5.42;;
14704;SDS011;7442;50.840;3.396;2023-07-30T20:02:00;12.10;;;5.40;;
14704;SDS011;7442;50.840;3.396;2023-07-30T20:04:47;10.45;;;4.95;;
14704;SDS011;7442;50.840;3.396;2023-07-30T20:07:33;14.75;;;5.22;;
14704;SDS011;7442;50.840;3.396;2023-07-30T20:10:19;12.68;;;5.47;;
14704;SDS011;7442;50.840;3.396;2023-07-30T20:13:05;10.82;;;4.97;;
14704;SDS011;7442;50.840;3.396;2023-07-30T20:15:51;9.80;;;4.83;;
14704;SDS011;7442;50.840;3.396;2023-07-30T20:18:38;17.70;;;5.85;;
14704;SDS011;7442;50.840;3.396;2023-07-30T20:21:25;13.95;;;5.60;;
14704;SDS011;7442;50.840;3.396;2023-07-30T20:24:11;12.05;;;5.35;;
14704;SDS011;7442;50.840;3.396;2023-07-30T20:26:57;13.10;;;5.75;;
14704;SDS011;7442;50.840;3.396;2023-07-30T20:29:45;10.58;;;5.45;;
14704;SDS011;7442;50.840;3.396;2023-07-30T20:32:31;10.20;;;5.47;;
14704;SDS011;7442;50.840;3.396;2023-07-30T20:35:17;12.78;;;5.45;;
14704;SDS011;7442;50.840;3.396;2023-07-30T20:38:03;10.95;;;6.08;;
14704;SDS011;7442;50.840;3.396;2023-07-30T20:40:50;12.05;;;5.35;;
14704;SDS011;7442;50.840;3.396;2023-07-30T20:43:36;12.20;;;5.22;;
14704;SDS011;7442;50.840;3.396;2023-07-30T20:46:24;14.13;;;5.92;;
14704;SDS011;7442;50.840;3.396;2023-07-30T20:49:10;13.75;;;5.70;;
14704;SDS011;7442;50.840;3.396;2023-07-30T20:51:56;14.35;;;5.60;;
14704;SDS011;7442;50.840;3.396;2023-07-30T20:54:42;12.58;;;5.45;;
14704;SDS011;7442;50.840;3.396;2023-07-30T20:57:29;12.88;;;5.55;;
14704;SDS011;7442;50.840;3.396;2023-07-30T21:00:15;8.95;;;5.05;;
14704;SDS011;7442;50.840;3.396;2023-07-30T21:03:01;9.30;;;5.28;;
14704;SDS011;7442;50.840;3.396;2023-07-30T21:05:47;11.28;;;5.40;;
14704;SDS011;7442;50.840;3.396;2023-07-30T21:08:33;11.12;;;5.55;;
14704;SDS011;7442;50.840;3.396;2023-07-30T21:11:19;9.83;;;5.10;;
14704;SDS011;7442;50.840;3.396;2023-07-30T21:14:05;10.80;;;5.22;;
14704;SDS011;7442;50.840;3.396;2023-07-30T21:16:52;11.25;;;6.03;;
14704;SDS011;7442;50.840;3.396;2023-07-30T21:19:39;12.33;;;5.45;;
14704;SDS011;7442;50.840;3.396;2023-07-30T21:22:25;15.32;;;5.75;;
14704;SDS011;7442;50.840;3.396;2023-07-30T21:25:11;14.18;;;5.47;;
14704;SDS011;7442;50.840;3.396;2023-07-30T21:27:58;12.43;;;5.62;;
14704;SDS011;7442;50.840;3.396;2023-07-30T21:30:44;13.22;;;5.62;;
14704;SDS011;7442;50.840;3.396;2023-07-30T21:33:31;11.97;;;4.83;;
14704;SDS011;7442;50.840;3.396;2023-07-30T21:36:19;13.98;;;5.40;;
14704;SDS011;7442;50.840;3.396;2023-07-30T21:39:05;12.18;;;5.25;;
14704;SDS011;7442;50.840;3.396;2023-07-30T21:41:51;12.03;;;5.55;;
14704;SDS011;7442;50.840;3.396;2023-07-30T21:44:38;11.80;;;5.10;;
14704;SDS011;7442;50.840;3.396;2023-07-30T21:47:24;10.65;;;5.08;;
14704;SDS011;7442;50.840;3.396;2023-07-30T21:50:10;10.58;;;5.20;;
14704;SDS011;7442;50.840;3.396;2023-07-30T21:52:56;12.80;;;5.97;;
14704;SDS011;7442;50.840;3.396;2023-07-30T21:55:43;11.65;;;5.03;;
14704;SDS011;7442;50.840;3.396;2023-07-30T21:58:29;9.53;;;4.83;;
14704;SDS011;7442;50.840;3.396;2023-07-30T22:01:16;13.35;;;5.65;;
14704;SDS011;7442;50.840;3.396;2023-07-30T22:04:03;13.10;;;5.90;;
14704;SDS011;7442;50.840;3.396;2023-07-30T22:06:49;14.05;;;5.75;;
14704;SDS011;7442;50.840;3.396;2023-07-30T22:09:42;9.70;;;5.30;;
14704;SDS011;7442;50.840;3.396;2023-07-30T22:12:26;10.13;;;5.50;;
14704;SDS011;7442;50.840;3.396;2023-07-30T22:15:12;14.13;;;5.67;;
14704;SDS011;7442;50.840;3.396;2023-07-30T22:17:59;11.65;;;5.45;;
14704;SDS011;7442;50.840;3.396;2023-07-30T22:20:45;12.55;;;5.42;;
14704;SDS011;7442;50.840;3.396;2023-07-30T22:23:31;10.18;;;5.35;;
14704;SDS011;7442;50.840;3.396;2023-07-30T22:26:19;9.68;;;5.67;;
14704;SDS011;7442;50.840;3.396;2023-07-30T22:29:05;9.03;;;5.40;;
14704;SDS011;7442;50.840;3.396;2023-07-30T22:31:51;9.90;;;5.35;;
14704;SDS011;7442;50.840;3.396;2023-07-30T22:34:38;11.28;;;4.92;;
14704;SDS011;7442;50.840;3.396;2023-07-30T22:37:24;9.23;;;5.40;;
14704;SDS011;7442;50.840;3.396;2023-07-30T22:40:10;9.33;;;5.12;;
14704;SDS011;7442;50.840;3.396;2023-07-30T22:42:57;10.68;;;4.75;;
14704;SDS011;7442;50.840;3.396;2023-07-30T22:45:44;8.65;;;4.95;;
14704;SDS011;7442;50.840;3.396;2023-07-30T22:48:30;10.60;;;5.30;;
14704;SDS011;7442;50.840;3.396;2023-07-30T22:51:17;10.38;;;5.17;;
14704;SDS011;7442;50.840;3.396;2023-07-30T22:54:03;11.48;;;5.28;;
14704;SDS011;7442;50.840;3.396;2023-07-30T22:56:49;9.73;;;5.10;;
14704;SDS011;7442;50.840;3.396;2023-07-30T22:59:35;9.78;;;5.20;;
14704;SDS011;7442;50.840;3.396;2023-07-30T23:02:21;16.32;;;5.60;;
14704;SDS011;7442;50.840;3.396;2023-07-30T23:05:08;11.20;;;5.95;;
14704;SDS011;7442;50.840;3.396;2023-07-30T23:07:54;11.83;;;5.67;;
14704;SDS011;7442;50.840;3.396;2023-07-30T23:10:40;10.05;;;5.08;;
14704;SDS011;7442;50.840;3.396;2023-07-30T23:13:27;8.98;;;5.10;;
14704;SDS011;7442;50.840;3.396;2023-07-30T23:16:13;10.70;;;5.45;;
14704;SDS011;7442;50.840;3.396;2023-07-30T23:18:59;11.65;;;5.40;;
14704;SDS011;7442;50.840;3.396;2023-07-30T23:21:46;10.10;;;5.15;;
14704;SDS011;7442;50.840;3.396;2023-07-30T23:24:32;11.93;;;5.67;;
14704;SDS011;7442;50.840;3.396;2023-07-30T23:27:18;10.63;;;5.55;;
14704;SDS011;7442;50.840;3.396;2023-07-30T23:30:05;9.50;;;5.12;;
14704;SDS011;7442;50.840;3.396;2023-07-30T23:32:52;13.22;;;5.65;;
14704;SDS011;7442;50.840;3.396;2023-07-30T23:35:38;14.33;;;6.22;;
14704;SDS011;7442;50.840;3.396;2023-07-30T23:38:24;10.28;;;5.62;;
14704;SDS011;7442;50.840;3.396;2023-07-30T23:41:10;10.78;;;5.58;;
14704;SDS011;7442;50.840;3.396;2023-07-30T23:43:56;10.78;;;5.87;;
14704;SDS011;7442;50.840;3.396;2023-07-30T23:46:42;10.75;;;6.10;;
14704;SDS011;7442;50.840;3.396;2023-07-30T23:49:29;9.78;;;5.08;;
14704;SDS011;7442;50.840;3.396;2023-07-30T23:52:15;10.15;;;5.50;;
14704;SDS011;7442;50.840;3.396;2023-07-30T23:55:01;11.28;;;6.30;;
14704;SDS011;7442;50.840;3.396;2023-07-30T23:57:48;12.18;;;6.10;;
